Alice Austin — WTZ3864 — position and weather

sailwx.info

Track history (hours):
 
Tides and Currents Weather Stations Pressure Air Temp Water Temp Dewpoint Dewpoint Depression Visibility Wind Speed Wind Dir Waves Ship Positions

Alice Austin

Owner: CITY OF NEW YORK, Brooklyn, NY. More information available from US FCC via Universal Licensing System and Coast Guard Vessel Documentation Center.

Last reported at 2017-Oct-20 01:26 UTC. Time now 2017-Oct-20 01:35 UTC.
Position N 40°38' W 074°04'.

Length 63 m; draft 2.2 m.

Type: Ship. MMSI: 367000120.

Date/timePositionNaut miles runAvg speedWind from/ knotsBaromVisibWave heightAir tempDewpointWater temp
2017-Oct-20 01:26N 40°38' W 074°04'0 0.0
2017-Oct-20 00:59N 40°38' W 074°04'0 0.0
2017-Oct-20 00:29N 40°38' W 074°04'0 0.0
2017-Oct-19 23:59N 40°38' W 074°04'0 0.0
2017-Oct-19 23:29N 40°38' W 074°04'0 0.0
2017-Oct-19 22:59N 40°38' W 074°04'0 0.0
2017-Oct-19 22:29N 40°38' W 074°04'0 0.0
2017-Oct-19 21:59N 40°38' W 074°04'0 0.0
2017-Oct-19 21:29N 40°38' W 074°04'0 0.0
2017-Oct-19 20:59N 40°38' W 074°04'0 0.0
2017-Oct-19 20:29N 40°38' W 074°04'0 0.0
2017-Oct-19 19:59N 40°38' W 074°04'0 0.0
2017-Oct-19 19:29N 40°38' W 074°04'0 0.0
2017-Oct-19 18:59N 40°38' W 074°04'0 0.0
2017-Oct-19 18:26N 40°38' W 074°04'0 0.0
2017-Oct-19 17:59N 40°38' W 074°04'0 0.0
2017-Oct-19 17:29N 40°38' W 074°04'0 0.0
2017-Oct-19 16:59N 40°38' W 074°04'0 0.0
2017-Oct-19 16:29N 40°38' W 074°04'0 0.0
2017-Oct-19 15:59N 40°38' W 074°04'0 0.0
2017-Oct-19 15:29N 40°38' W 074°04'0 0.0
2017-Oct-19 14:59N 40°38' W 074°04'0 0.0
2017-Oct-19 14:29N 40°38' W 074°04'0 0.0
2017-Oct-19 13:59N 40°38' W 074°04'0 0.0
2017-Oct-19 13:29N 40°38' W 074°04'0 0.0
2017-Oct-19 13:00N 40°38' W 074°04'0 0.5
2017-Oct-19 12:31N 40°39' W 074°04'0 0.1
2017-Oct-19 12:01N 40°39' W 074°04'0 0.3
2017-Oct-19 11:30N 40°39' W 074°04'4 6.8
2017-Oct-19 10:54N 40°42' W 074°01'2 5.6
2017-Oct-19 10:31N 40°40' W 074°03'2 3.8
2017-Oct-19 10:00N 40°39' W 074°04'4 8.6
2017-Oct-19 09:30N 40°42' W 074°01'4 8.6
2017-Oct-19 09:00N 40°39' W 074°04'4 8.6
2017-Oct-19 08:30N 40°42' W 074°01'4 8.6
2017-Oct-19 08:00N 40°39' W 074°04'4 8.6
2017-Oct-19 07:30N 40°42' W 074°01'4 8.5
2017-Oct-19 07:00N 40°39' W 074°04'4 8.5
2017-Oct-19 06:30N 40°42' W 074°01'4 8.6
2017-Oct-19 06:00N 40°39' W 074°04'4 8.6
2017-Oct-19 05:31N 40°42' W 074°01'4 8.6
2017-Oct-19 05:00N 40°39' W 074°04'4 8.6
2017-Oct-19 04:31N 40°42' W 074°01'4 8.6
2017-Oct-19 04:01N 40°39' W 074°04'0 0.4
2017-Oct-19 03:31N 40°38' W 074°04'0 0.0
2017-Oct-19 03:00N 40°38' W 074°04'0 0.0
2017-Oct-19 02:29N 40°38' W 074°04'0 0.0
2017-Oct-19 01:59N 40°38' W 074°04'0 0.0
2017-Oct-19 01:29N 40°38' W 074°04'0 0.0
2017-Oct-19 00:59N 40°38' W 074°04'0 0.0
2017-Oct-19 00:29N 40°38' W 074°04'0 0.0
2017-Oct-18 23:59N 40°38' W 074°04'0 0.0
2017-Oct-18 23:29N 40°38' W 074°04'0 0.0
2017-Oct-18 22:59N 40°38' W 074°04'0 0.0
2017-Oct-18 22:29N 40°38' W 074°04'0 0.0
2017-Oct-18 21:59N 40°38' W 074°04'0 0.0
2017-Oct-18 21:29N 40°38' W 074°04'0 0.0
2017-Oct-18 20:59N 40°38' W 074°04'0 0.0
2017-Oct-18 20:26N 40°38' W 074°04'0 0.0
2017-Oct-18 19:59N 40°38' W 074°04'0 0.0
2017-Oct-18 19:29N 40°38' W 074°04'0 0.0
2017-Oct-18 18:59N 40°38' W 074°04'0 0.0
2017-Oct-18 18:29N 40°38' W 074°04'0 0.0
2017-Oct-18 17:59N 40°38' W 074°04'0 0.0
2017-Oct-18 17:29N 40°38' W 074°04'0 0.0
2017-Oct-18 16:59N 40°38' W 074°04'0 0.0
2017-Oct-18 16:29N 40°38' W 074°04'0 0.0
2017-Oct-18 15:59N 40°38' W 074°04'0 0.0
2017-Oct-18 15:29N 40°38' W 074°04'0 0.0
2017-Oct-18 14:59N 40°38' W 074°04'0 0.0
2017-Oct-18 13:59N 40°38' W 074°04'0 0.0
2017-Oct-18 13:29N 40°38' W 074°04'0 0.0
2017-Oct-18 12:59N 40°38' W 074°04'0 0.0
2017-Oct-18 12:29N 40°38' W 074°04'0 0.0
2017-Oct-18 11:59N 40°38' W 074°04'0 0.3
2017-Oct-18 11:30N 40°39' W 074°04'3 6.2
2017-Oct-18 11:01N 40°41' W 074°02'1 2.2
2017-Oct-18 10:31N 40°40' W 074°03'2 4.1
2017-Oct-18 10:01N 40°39' W 074°04'4 8.6
2017-Oct-18 09:31N 40°42' W 074°01'4 8.6
2017-Oct-18 09:01N 40°39' W 074°04'4 8.6
2017-Oct-18 08:31N 40°42' W 074°01'4 8.6
2017-Oct-18 08:00N 40°39' W 074°04'4 8.6
2017-Oct-18 07:31N 40°42' W 074°01'4 8.5
2017-Oct-18 07:01N 40°39' W 074°04'4 7.8
2017-Oct-18 06:28N 40°42' W 074°01'4 9.5
2017-Oct-18 06:01N 40°39' W 074°04'4 7.6
2017-Oct-18 05:27N 40°42' W 074°01'4 9.8
2017-Oct-18 05:00N 40°39' W 074°04'4 8.5
2017-Oct-18 04:30N 40°42' W 074°01'4 8.8
2017-Oct-18 04:01N 40°39' W 074°04'0 0.4
2017-Oct-18 03:30N 40°38' W 074°04'0 0.0
2017-Oct-18 03:00N 40°38' W 074°04'0 0.0
2017-Oct-18 02:29N 40°38' W 074°04'0 0.0
2017-Oct-18 01:59N 40°38' W 074°04'0 0.0
2017-Oct-18 01:29N 40°38' W 074°04'0 0.0
2017-Oct-18 00:59N 40°38' W 074°04'0 0.0
2017-Oct-18 00:29N 40°38' W 074°04'0 0.0
2017-Oct-17 23:59N 40°38' W 074°04'0 0.0
2017-Oct-17 23:29N 40°38' W 074°04'0 0.0
2017-Oct-17 22:59N 40°38' W 074°04'0 0.0
2017-Oct-17 22:29N 40°38' W 074°04'0 0.0
2017-Oct-17 21:56N 40°38' W 074°04'0 0.0
2017-Oct-17 21:29N 40°38' W 074°04'0 0.0
2017-Oct-17 20:56N 40°38' W 074°04'0 0.0
2017-Oct-17 20:23N 40°38' W 074°04'0 0.0
2017-Oct-17 19:59N 40°38' W 074°04'0 0.0
2017-Oct-17 19:29N 40°38' W 074°04'0 0.0
2017-Oct-17 18:59N 40°38' W 074°04'0 0.0
2017-Oct-17 18:29N 40°38' W 074°04'0 0.0
2017-Oct-17 17:59N 40°38' W 074°04'0 0.0
2017-Oct-17 17:29N 40°38' W 074°04'0 0.0
2017-Oct-17 16:59N 40°38' W 074°04'0 0.0
2017-Oct-17 16:29N 40°38' W 074°04'0 0.0
2017-Oct-17 15:59N 40°38' W 074°04'0 0.0
2017-Oct-17 15:29N 40°38' W 074°04'0 0.0
2017-Oct-17 14:56N 40°38' W 074°04'0 0.0
2017-Oct-17 14:29N 40°38' W 074°04'0 0.0
2017-Oct-17 13:59N 40°38' W 074°04'0 0.0
2017-Oct-17 13:29N 40°38' W 074°04'0 0.0
2017-Oct-17 13:00N 40°38' W 074°04'0 0.0
2017-Oct-17 12:30N 40°38' W 074°04'0 0.0
2017-Oct-17 12:00N 40°38' W 074°04'0 0.3
2017-Oct-17 11:30N 40°39' W 074°04'3 6.5
2017-Oct-17 11:00N 40°41' W 074°02'2 3.5
2017-Oct-17 10:30N 40°40' W 074°03'2 3.1
2017-Oct-17 10:00N 40°39' W 074°04'4 8.6
2017-Oct-17 09:31N 40°42' W 074°01'4 8.5
2017-Oct-17 09:00N 40°39' W 074°04'4 8.6
2017-Oct-17 08:30N 40°42' W 074°01'4 8.5
2017-Oct-17 08:00N 40°39' W 074°04'4 8.1
2017-Oct-17 07:29N 40°42' W 074°01'4 9.2
2017-Oct-17 07:00N 40°39' W 074°04'4 8.6
2017-Oct-17 06:30N 40°42' W 074°01'4 8.6
2017-Oct-17 06:00N 40°39' W 074°04'4 8.5
2017-Oct-17 05:31N 40°42' W 074°01'4 8.5
2017-Oct-17 05:01N 40°39' W 074°04'4 8.5
2017-Oct-17 04:30N 40°42' W 074°01'4 8.6
2017-Oct-17 04:00N 40°39' W 074°04'0 0.8
2017-Oct-17 03:30N 40°38' W 074°04'0 0.7
2017-Oct-17 03:00N 40°38' W 074°04'0 0.0
2017-Oct-17 02:30N 40°38' W 074°04'0 0.0
2017-Oct-17 01:56N 40°38' W 074°04'0 0.0
2017-Oct-17 01:29N 40°38' W 074°04'0 0.0
2017-Oct-17 00:59N 40°38' W 074°04'0 0.0
2017-Oct-17 00:29N 40°38' W 074°04'0 0.0
2017-Oct-16 23:56N 40°38' W 074°04'0 0.0
2017-Oct-16 23:29N 40°38' W 074°04'0 0.0
2017-Oct-16 22:56N 40°38' W 074°04'0 0.0
2017-Oct-16 22:29N 40°38' W 074°04'0 0.0
2017-Oct-16 21:59N 40°38' W 074°04'0 0.0
2017-Oct-16 21:29N 40°38' W 074°04'0 0.0
2017-Oct-16 20:59N 40°38' W 074°04'0 0.0
2017-Oct-16 20:29N 40°38' W 074°04'0 0.0
2017-Oct-16 19:59N 40°38' W 074°04'0 0.0
2017-Oct-16 19:29N 40°38' W 074°04'0 0.0
2017-Oct-16 18:59N 40°38' W 074°04'0 0.0
2017-Oct-16 18:29N 40°38' W 074°04'0 0.0
2017-Oct-16 17:56N 40°38' W 074°04'0 0.0
2017-Oct-16 17:29N 40°38' W 074°04'0 0.0
2017-Oct-16 16:59N 40°38' W 074°04'0 0.0
2017-Oct-16 16:29N 40°38' W 074°04'0 0.0
2017-Oct-16 15:59N 40°38' W 074°04'0 0.0
2017-Oct-16 15:29N 40°38' W 074°04'0 0.0
2017-Oct-16 14:56N 40°38' W 074°04'0 0.0
2017-Oct-16 14:29N 40°38' W 074°04'0 0.0
2017-Oct-16 13:26N 40°38' W 074°04'0 0.6
2017-Oct-16 13:00N 40°39' W 074°04'0 0.0
2017-Oct-16 12:30N 40°39' W 074°04'0 0.0
2017-Oct-16 12:00N 40°39' W 074°04'0 0.0
2017-Oct-16 11:30N 40°39' W 074°04'0 0.1
2017-Oct-16 11:00N 40°39' W 074°04'0 0.1
2017-Oct-16 10:30N 40°39' W 074°04'4 8.6
2017-Oct-16 10:00N 40°42' W 074°01'4 8.6
2017-Oct-16 09:30N 40°39' W 074°04'4 8.6
2017-Oct-16 09:01N 40°42' W 074°01'4 8.6
2017-Oct-16 08:31N 40°39' W 074°04'4 8.6
2017-Oct-16 08:00N 40°42' W 074°01'4 8.6
2017-Oct-16 07:30N 40°39' W 074°04'4 8.5
2017-Oct-16 07:00N 40°42' W 074°01'4 8.6
2017-Oct-16 06:30N 40°39' W 074°04'4 8.6
2017-Oct-16 06:00N 40°42' W 074°01'4 8.6
2017-Oct-16 05:30N 40°39' W 074°04'4 8.5
2017-Oct-16 05:00N 40°42' W 074°01'4 8.6
2017-Oct-16 04:30N 40°39' W 074°04'0 0.4
2017-Oct-16 04:00N 40°38' W 074°04'0 0.0
2017-Oct-16 03:31N 40°38' W 074°04'0 0.0
2017-Oct-16 03:00N 40°38' W 074°04'0 0.0
2017-Oct-16 02:30N 40°38' W 074°04'0 0.0
2017-Oct-16 02:00N 40°38' W 074°04'0 0.0
2017-Oct-16 01:30N 40°38' W 074°04'0 0.0
2017-Oct-16 00:57N 40°38' W 074°04'0 0.0
2017-Oct-16 00:30N 40°38' W 074°04'0 0.0
2017-Oct-16 00:00N 40°38' W 074°04'0 0.0
2017-Oct-15 23:30N 40°38' W 074°04'0 0.0
2017-Oct-15 23:00N 40°38' W 074°04'0 0.0
2017-Oct-15 22:30N 40°38' W 074°04'0 0.0
2017-Oct-15 22:00N 40°38' W 074°04'0 0.0
2017-Oct-15 21:30N 40°38' W 074°04'0 0.0
2017-Oct-15 21:00N 40°38' W 074°04'0 0.0
2017-Oct-15 20:24N 40°38' W 074°04'0 0.0
2017-Oct-15 19:54N 40°38' W 074°04'0 0.0
2017-Oct-15 19:24N 40°38' W 074°04'0 0.0
2017-Oct-15 18:57N 40°38' W 074°04'0 0.0
2017-Oct-15 18:30N 40°38' W 074°04'0 0.0
2017-Oct-15 18:00N 40°38' W 074°04'0 0.0
2017-Oct-15 17:30N 40°38' W 074°04'0 0.0
2017-Oct-15 17:00N 40°38' W 074°04'0 0.0
2017-Oct-15 16:30N 40°38' W 074°04'0 0.0
2017-Oct-15 16:00N 40°38' W 074°04'0 0.0
2017-Oct-15 15:24N 40°38' W 074°04'0 0.0
2017-Oct-15 15:00N 40°38' W 074°04'0 0.0
2017-Oct-15 13:57N 40°38' W 074°04'0 0.0
2017-Oct-15 13:30N 40°38' W 074°04'0 0.0
2017-Oct-15 13:00N 40°38' W 074°04'0 0.0
2017-Oct-15 12:30N 40°38' W 074°04'0 0.3
2017-Oct-15 12:00N 40°39' W 074°04'0 0.0
2017-Oct-15 11:30N 40°39' W 074°04'4 8.7
2017-Oct-15 11:00N 40°42' W 074°01'4 8.6
2017-Oct-15 10:30N 40°39' W 074°04'4 8.7
2017-Oct-15 10:01N 40°42' W 074°01'4 8.5
2017-Oct-15 09:30N 40°39' W 074°04'4 8.6
2017-Oct-15 09:01N 40°42' W 074°01'4 8.6
2017-Oct-15 08:31N 40°39' W 074°04'4 8.6
2017-Oct-15 08:01N 40°42' W 074°01'4 8.6
2017-Oct-15 07:31N 40°39' W 074°04'4 8.5
2017-Oct-15 07:00N 40°42' W 074°01'4 8.5
2017-Oct-15 06:31N 40°39' W 074°04'4 8.5
2017-Oct-15 06:01N 40°42' W 074°01'4 8.6
2017-Oct-15 05:30N 40°39' W 074°04'4 8.6
2017-Oct-15 05:00N 40°42' W 074°01'4 8.6
2017-Oct-15 04:30N 40°39' W 074°04'0 0.4
2017-Oct-15 04:00N 40°38' W 074°04'0 0.0
2017-Oct-15 03:30N 40°38' W 074°04'0 0.0
2017-Oct-15 03:00N 40°38' W 074°04'0 0.0
2017-Oct-15 02:30N 40°38' W 074°04'0 0.0
2017-Oct-15 02:00N 40°38' W 074°04'0 0.0
2017-Oct-15 01:25N 40°38' W 074°04'0 0.0
2017-Oct-15 00:58N 40°38' W 074°04'0 0.0
2017-Oct-15 00:28N 40°38' W 074°04'0 0.0
2017-Oct-14 23:58N 40°38' W 074°04'0 0.0
2017-Oct-14 23:28N 40°38' W 074°04'0 0.0
2017-Oct-14 22:58N 40°38' W 074°04'0 0.0
2017-Oct-14 22:28N 40°38' W 074°04'0 0.0
2017-Oct-14 21:58N 40°38' W 074°04'0 0.0
2017-Oct-14 21:28N 40°38' W 074°04'0 0.0
2017-Oct-14 20:58N 40°38' W 074°04'0 0.0
2017-Oct-14 20:28N 40°38' W 074°04'0 0.0
2017-Oct-14 19:58N 40°38' W 074°04'0 0.0
2017-Oct-14 19:28N 40°38' W 074°04'0 0.0
2017-Oct-14 18:58N 40°38' W 074°04'0 0.0
2017-Oct-14 18:28N 40°38' W 074°04'0 0.0
2017-Oct-14 17:58N 40°38' W 074°04'0 0.0
2017-Oct-14 17:28N 40°38' W 074°04'0 0.0
2017-Oct-14 16:55N 40°38' W 074°04'0 0.0
2017-Oct-14 16:28N 40°38' W 074°04'0 0.0
2017-Oct-14 15:58N 40°38' W 074°04'0 0.0
2017-Oct-14 15:28N 40°38' W 074°04'0 0.0
2017-Oct-14 14:55N 40°38' W 074°04'0 0.0
2017-Oct-14 14:25N 40°38' W 074°04'0 0.0
2017-Oct-14 13:58N 40°38' W 074°04'0 0.0
2017-Oct-14 13:28N 40°38' W 074°04'0 0.0
2017-Oct-14 12:55N 40°38' W 074°04'0 0.0
2017-Oct-14 12:29N 40°38' W 074°04'0 0.4
2017-Oct-14 12:00N 40°39' W 074°04'0 0.0
2017-Oct-14 11:30N 40°39' W 074°04'4 8.7
2017-Oct-14 11:00N 40°42' W 074°01'4 8.6
2017-Oct-14 10:30N 40°39' W 074°04'4 8.5
2017-Oct-14 10:00N 40°42' W 074°01'4 8.7
2017-Oct-14 09:30N 40°39' W 074°04'4 8.4
2017-Oct-14 09:00N 40°42' W 074°01'4 8.7
2017-Oct-14 08:30N 40°39' W 074°04'4 8.7
2017-Oct-14 08:01N 40°42' W 074°01'4 8.4
2017-Oct-14 07:31N 40°39' W 074°04'4 8.4
2017-Oct-14 07:00N 40°42' W 074°01'4 8.4
2017-Oct-14 06:30N 40°39' W 074°04'4 8.6
2017-Oct-14 06:00N 40°42' W 074°01'4 8.6
2017-Oct-14 05:30N 40°39' W 074°04'4 8.6
2017-Oct-14 05:00N 40°42' W 074°01'4 8.7
2017-Oct-14 04:30N 40°39' W 074°04'4 8.5
2017-Oct-14 04:00N 40°42' W 074°01'4 8.5
2017-Oct-14 03:30N 40°39' W 074°04'0 0.3
2017-Oct-14 03:00N 40°38' W 074°04'0 0.0
2017-Oct-14 02:30N 40°38' W 074°04'0 0.0
2017-Oct-14 02:00N 40°38' W 074°04'0 0.0
2017-Oct-14 01:29N 40°38' W 074°04'0 0.0
2017-Oct-14 01:00N 40°38' W 074°04'0 0.0
2017-Oct-14 00:30N 40°38' W 074°04'0 0.0
2017-Oct-14 00:00N 40°38' W 074°04'0 0.0
2017-Oct-13 23:30N 40°38' W 074°04'0 0.0
2017-Oct-13 23:00N 40°38' W 074°04'0 0.0
2017-Oct-13 22:30N 40°38' W 074°04'0 0.0
2017-Oct-13 22:00N 40°38' W 074°04'0 0.0
2017-Oct-13 21:30N 40°38' W 074°04'0 0.0
2017-Oct-13 21:00N 40°38' W 074°04'0 0.0
2017-Oct-13 20:30N 40°38' W 074°04'0 0.0
2017-Oct-13 20:00N 40°38' W 074°04'0 0.0
2017-Oct-13 19:30N 40°38' W 074°04'0 0.0
2017-Oct-13 19:00N 40°38' W 074°04'0 0.0
2017-Oct-13 18:30N 40°38' W 074°04'0 0.0
2017-Oct-13 18:00N 40°38' W 074°04'0 0.0
2017-Oct-13 17:30N 40°38' W 074°04'0 0.0
2017-Oct-13 17:00N 40°38' W 074°04'0 0.0
2017-Oct-13 16:30N 40°38' W 074°04'0 0.0
2017-Oct-13 16:00N 40°38' W 074°04'0 0.0
2017-Oct-13 15:30N 40°38' W 074°04'0 0.0
2017-Oct-13 15:00N 40°38' W 074°04'0 0.0
2017-Oct-13 14:30N 40°38' W 074°04'0 0.0
2017-Oct-13 14:00N 40°38' W 074°04'0 0.0
2017-Oct-13 13:30N 40°38' W 074°04'0 0.0
2017-Oct-13 13:00N 40°38' W 074°04'0 0.0
2017-Oct-13 12:30N 40°38' W 074°04'0 0.0
2017-Oct-13 12:00N 40°38' W 074°04'0 0.0
2017-Oct-13 11:30N 40°38' W 074°04'0 0.5
2017-Oct-13 11:00N 40°39' W 074°04'0 0.0
2017-Oct-13 10:30N 40°39' W 074°04'4 8.8
2017-Oct-13 10:00N 40°42' W 074°01'4 8.5
2017-Oct-13 09:30N 40°39' W 074°04'4 8.6
2017-Oct-13 09:00N 40°42' W 074°01'4 8.6
2017-Oct-13 08:30N 40°39' W 074°04'4 8.5
2017-Oct-13 08:00N 40°42' W 074°01'4 8.5
2017-Oct-13 07:30N 40°39' W 074°04'4 8.7
2017-Oct-13 07:00N 40°42' W 074°01'4 8.7
2017-Oct-13 06:31N 40°39' W 074°04'4 8.5
2017-Oct-13 06:00N 40°42' W 074°01'4 8.7
2017-Oct-13 05:30N 40°39' W 074°04'4 8.3
2017-Oct-13 05:00N 40°42' W 074°01'4 8.8
2017-Oct-13 04:30N 40°39' W 074°04'4 8.6
2017-Oct-13 04:00N 40°42' W 074°01'4 8.7
2017-Oct-13 03:30N 40°39' W 074°04'0 0.3
2017-Oct-13 03:00N 40°38' W 074°04'0 0.0
2017-Oct-13 02:30N 40°38' W 074°04'0 0.0
2017-Oct-13 02:00N 40°38' W 074°04'0 0.0
2017-Oct-13 01:31N 40°38' W 074°04'0 0.0
2017-Oct-13 01:00N 40°38' W 074°04'0 0.0
2017-Oct-13 00:30N 40°38' W 074°04'0 0.0
2017-Oct-13 00:00N 40°38' W 074°04'0 0.0
2017-Oct-12 23:30N 40°38' W 074°04'0 0.0
2017-Oct-12 23:00N 40°38' W 074°04'0 0.0
2017-Oct-12 22:30N 40°38' W 074°04'0 0.0
2017-Oct-12 22:00N 40°38' W 074°04'0 0.0
2017-Oct-12 21:30N 40°38' W 074°04'0 0.0
2017-Oct-12 21:00N 40°38' W 074°04'0 0.0
2017-Oct-12 20:30N 40°38' W 074°04'0 0.0
2017-Oct-12 20:00N 40°38' W 074°04'0 0.0
2017-Oct-12 19:30N 40°38' W 074°04'0 0.0
2017-Oct-12 19:00N 40°38' W 074°04'0 0.0
2017-Oct-12 18:30N 40°38' W 074°04'0 0.0
2017-Oct-12 18:00N 40°38' W 074°04'0 0.0
2017-Oct-12 17:30N 40°38' W 074°04'0 0.0
2017-Oct-12 17:00N 40°38' W 074°04'0 0.0
2017-Oct-12 16:30N 40°38' W 074°04'0 0.0
2017-Oct-12 16:00N 40°38' W 074°04'0 0.0
2017-Oct-12 15:30N 40°38' W 074°04'0 0.0
2017-Oct-12 15:00N 40°38' W 074°04'0 0.0
2017-Oct-12 14:30N 40°38' W 074°04'0 0.0
2017-Oct-12 14:00N 40°38' W 074°04'0 0.0
2017-Oct-12 13:30N 40°38' W 074°04'0 0.0
2017-Oct-12 13:00N 40°38' W 074°04'0 0.0
2017-Oct-12 12:30N 40°38' W 074°04'0 0.0
2017-Oct-12 12:00N 40°38' W 074°04'0 0.0
2017-Oct-12 11:31N 40°38' W 074°04'0 0.4
2017-Oct-12 10:59N 40°39' W 074°04'0 0.0
2017-Oct-12 10:30N 40°39' W 074°04'4 8.6
2017-Oct-12 10:00N 40°42' W 074°01'4 8.5
2017-Oct-12 09:30N 40°39' W 074°04'4 8.7
2017-Oct-12 09:00N 40°42' W 074°01'4 8.4
2017-Oct-12 08:30N 40°39' W 074°04'4 8.7
2017-Oct-12 08:00N 40°42' W 074°01'4 8.5
2017-Oct-12 07:30N 40°39' W 074°04'4 8.7
2017-Oct-12 07:00N 40°42' W 074°01'4 8.4
2017-Oct-12 06:30N 40°39' W 074°04'4 8.6
2017-Oct-12 06:00N 40°42' W 074°01'4 8.5
2017-Oct-12 05:30N 40°39' W 074°04'4 8.8
2017-Oct-12 05:00N 40°42' W 074°01'4 8.5
2017-Oct-12 04:30N 40°39' W 074°04'4 8.6
2017-Oct-12 04:00N 40°42' W 074°01'4 8.8
2017-Oct-12 03:30N 40°39' W 074°04'0 0.4
2017-Oct-12 03:00N 40°38' W 074°04'0 0.0
2017-Oct-12 02:30N 40°38' W 074°04'0 0.0
2017-Oct-12 01:59N 40°38' W 074°04'0 0.0
2017-Oct-12 01:29N 40°38' W 074°04'0 0.0
2017-Oct-12 00:59N 40°38' W 074°04'0 0.0
2017-Oct-12 00:29N 40°38' W 074°04'0 0.0
2017-Oct-11 23:56N 40°38' W 074°04'0 0.0
2017-Oct-11 23:29N 40°38' W 074°04'0 0.0
2017-Oct-11 22:56N 40°38' W 074°04'0 0.0
2017-Oct-11 22:29N 40°38' W 074°04'0 0.0
2017-Oct-11 21:59N 40°38' W 074°04'0 0.0
2017-Oct-11 21:29N 40°38' W 074°04'0 0.0
2017-Oct-11 20:53N 40°38' W 074°04'0 0.0
2017-Oct-11 20:23N 40°38' W 074°04'0 0.0
2017-Oct-11 19:56N 40°38' W 074°04'0 0.0
2017-Oct-11 19:26N 40°38' W 074°04'0 0.0
2017-Oct-11 18:53N 40°38' W 074°04'0 0.0
2017-Oct-11 18:20N 40°38' W 074°04'0 0.0
2017-Oct-11 17:59N 40°38' W 074°04'0 0.0
2017-Oct-11 17:29N 40°38' W 074°04'0 0.0
2017-Oct-11 16:56N 40°38' W 074°04'0 0.0
2017-Oct-10 23:59N 40°38' W 074°04'0 0.0
2017-Oct-10 23:29N 40°38' W 074°04'0 0.0
2017-Oct-10 22:59N 40°38' W 074°04'0 0.0
2017-Oct-10 22:29N 40°38' W 074°04'0 0.0
2017-Oct-10 21:59N 40°38' W 074°04'0 0.0
2017-Oct-10 21:29N 40°38' W 074°04'0 0.0
2017-Oct-10 20:59N 40°38' W 074°04'0 0.0
2017-Oct-10 20:29N 40°38' W 074°04'0 0.0
2017-Oct-10 19:59N 40°38' W 074°04'0 0.0
2017-Oct-10 19:29N 40°38' W 074°04'0 0.0
2017-Oct-10 18:59N 40°38' W 074°04'0 0.0
2017-Oct-10 18:29N 40°38' W 074°04'0 0.0
2017-Oct-10 17:59N 40°38' W 074°04'0 0.0
2017-Oct-10 17:29N 40°38' W 074°04'0 0.0
2017-Oct-10 16:56N 40°38' W 074°04'0 0.0
2017-Oct-10 16:29N 40°38' W 074°04'0 0.0
2017-Oct-10 15:59N 40°38' W 074°04'0 0.0
2017-Oct-10 15:26N 40°38' W 074°04'0 0.0
2017-Oct-10 14:59N 40°38' W 074°04'0 0.0
2017-Oct-10 13:59N 40°38' W 074°04'0 0.0
2017-Oct-10 13:26N 40°38' W 074°04'0 0.1
2017-Oct-10 13:00N 40°38' W 074°04'0 0.5
2017-Oct-10 12:30N 40°39' W 074°04'0 0.0
2017-Oct-10 12:00N 40°39' W 074°04'0 0.0
2017-Oct-10 11:30N 40°39' W 074°04'0 0.1
2017-Oct-10 11:01N 40°39' W 074°04'0 0.0
2017-Oct-10 10:31N 40°39' W 074°04'4 8.6
2017-Oct-10 10:00N 40°42' W 074°01'4 8.6
2017-Oct-10 09:30N 40°39' W 074°04'4 8.6
2017-Oct-10 09:00N 40°42' W 074°01'4 8.6
2017-Oct-10 08:30N 40°39' W 074°04'4 8.6
2017-Oct-10 08:00N 40°42' W 074°01'4 8.6
2017-Oct-10 07:30N 40°39' W 074°04'4 8.5
2017-Oct-10 07:00N 40°42' W 074°01'4 8.6
2017-Oct-10 06:30N 40°39' W 074°04'4 8.6
2017-Oct-10 06:00N 40°42' W 074°01'4 8.6
2017-Oct-10 05:30N 40°39' W 074°04'4 8.5
2017-Oct-10 05:00N 40°42' W 074°01'4 8.5
2017-Oct-10 04:31N 40°39' W 074°04'4 8.6
2017-Oct-10 04:00N 40°42' W 074°01'4 8.7
2017-Oct-10 03:31N 40°39' W 074°04'0 0.4
2017-Oct-10 03:01N 40°38' W 074°04'0 0.0
2017-Oct-10 02:31N 40°38' W 074°04'0 0.0
2017-Oct-10 02:01N 40°38' W 074°04'0 0.0
2017-Oct-10 01:28N 40°38' W 074°04'  
Track history (hours):
 
Tides and Currents Weather Stations Pressure Air Temp Water Temp Dewpoint Dewpoint Depression Visibility Wind Speed Wind Dir Waves Ship Positions

Alice Austin

Owner: CITY OF NEW YORK, Brooklyn, NY. More information available from US FCC via Universal Licensing System and Coast Guard Vessel Documentation Center.

Last reported at 2017-Oct-20 01:26 UTC. Time now 2017-Oct-20 01:35 UTC.
Position N 40°38' W 074°04'.

Length 63 m; draft 2.2 m.

Type: Ship. MMSI: 367000120.

Date/timePositionNaut miles runAvg speedWind from/ knotsBaromVisibWave heightAir tempDewpointWater temp
2017-Oct-20 01:26N 40°38' W 074°04'0 0.0
2017-Oct-20 00:59N 40°38' W 074°04'0 0.0
2017-Oct-20 00:29N 40°38' W 074°04'0 0.0
2017-Oct-19 23:59N 40°38' W 074°04'0 0.0
2017-Oct-19 23:29N 40°38' W 074°04'0 0.0
2017-Oct-19 22:59N 40°38' W 074°04'0 0.0
2017-Oct-19 22:29N 40°38' W 074°04'0 0.0
2017-Oct-19 21:59N 40°38' W 074°04'0 0.0
2017-Oct-19 21:29N 40°38' W 074°04'0 0.0
2017-Oct-19 20:59N 40°38' W 074°04'0 0.0
2017-Oct-19 20:29N 40°38' W 074°04'0 0.0
2017-Oct-19 19:59N 40°38' W 074°04'0 0.0
2017-Oct-19 19:29N 40°38' W 074°04'0 0.0
2017-Oct-19 18:59N 40°38' W 074°04'0 0.0
2017-Oct-19 18:26N 40°38' W 074°04'0 0.0
2017-Oct-19 17:59N 40°38' W 074°04'0 0.0
2017-Oct-19 17:29N 40°38' W 074°04'0 0.0
2017-Oct-19 16:59N 40°38' W 074°04'0 0.0
2017-Oct-19 16:29N 40°38' W 074°04'0 0.0
2017-Oct-19 15:59N 40°38' W 074°04'0 0.0
2017-Oct-19 15:29N 40°38' W 074°04'0 0.0
2017-Oct-19 14:59N 40°38' W 074°04'0 0.0
2017-Oct-19 14:29N 40°38' W 074°04'0 0.0
2017-Oct-19 13:59N 40°38' W 074°04'0 0.0
2017-Oct-19 13:29N 40°38' W 074°04'0 0.0
2017-Oct-19 13:00N 40°38' W 074°04'0 0.5
2017-Oct-19 12:31N 40°39' W 074°04'0 0.1
2017-Oct-19 12:01N 40°39' W 074°04'0 0.3
2017-Oct-19 11:30N 40°39' W 074°04'4 6.8
2017-Oct-19 10:54N 40°42' W 074°01'2 5.6
2017-Oct-19 10:31N 40°40' W 074°03'2 3.8
2017-Oct-19 10:00N 40°39' W 074°04'4 8.6
2017-Oct-19 09:30N 40°42' W 074°01'4 8.6
2017-Oct-19 09:00N 40°39' W 074°04'4 8.6
2017-Oct-19 08:30N 40°42' W 074°01'4 8.6
2017-Oct-19 08:00N 40°39' W 074°04'4 8.6
2017-Oct-19 07:30N 40°42' W 074°01'4 8.5
2017-Oct-19 07:00N 40°39' W 074°04'4 8.5
2017-Oct-19 06:30N 40°42' W 074°01'4 8.6
2017-Oct-19 06:00N 40°39' W 074°04'4 8.6
2017-Oct-19 05:31N 40°42' W 074°01'4 8.6
2017-Oct-19 05:00N 40°39' W 074°04'4 8.6
2017-Oct-19 04:31N 40°42' W 074°01'4 8.6
2017-Oct-19 04:01N 40°39' W 074°04'0 0.4
2017-Oct-19 03:31N 40°38' W 074°04'0 0.0
2017-Oct-19 03:00N 40°38' W 074°04'0 0.0
2017-Oct-19 02:29N 40°38' W 074°04'0 0.0
2017-Oct-19 01:59N 40°38' W 074°04'0 0.0
2017-Oct-19 01:29N 40°38' W 074°04'0 0.0
2017-Oct-19 00:59N 40°38' W 074°04'0 0.0
2017-Oct-19 00:29N 40°38' W 074°04'0 0.0
2017-Oct-18 23:59N 40°38' W 074°04'0 0.0
2017-Oct-18 23:29N 40°38' W 074°04'0 0.0
2017-Oct-18 22:59N 40°38' W 074°04'0 0.0
2017-Oct-18 22:29N 40°38' W 074°04'0 0.0
2017-Oct-18 21:59N 40°38' W 074°04'0 0.0
2017-Oct-18 21:29N 40°38' W 074°04'0 0.0
2017-Oct-18 20:59N 40°38' W 074°04'0 0.0
2017-Oct-18 20:26N 40°38' W 074°04'0 0.0
2017-Oct-18 19:59N 40°38' W 074°04'0 0.0
2017-Oct-18 19:29N 40°38' W 074°04'0 0.0
2017-Oct-18 18:59N 40°38' W 074°04'0 0.0
2017-Oct-18 18:29N 40°38' W 074°04'0 0.0
2017-Oct-18 17:59N 40°38' W 074°04'0 0.0
2017-Oct-18 17:29N 40°38' W 074°04'0 0.0
2017-Oct-18 16:59N 40°38' W 074°04'0 0.0
2017-Oct-18 16:29N 40°38' W 074°04'0 0.0
2017-Oct-18 15:59N 40°38' W 074°04'0 0.0
2017-Oct-18 15:29N 40°38' W 074°04'0 0.0
2017-Oct-18 14:59N 40°38' W 074°04'0 0.0
2017-Oct-18 13:59N 40°38' W 074°04'0 0.0
2017-Oct-18 13:29N 40°38' W 074°04'0 0.0
2017-Oct-18 12:59N 40°38' W 074°04'0 0.0
2017-Oct-18 12:29N 40°38' W 074°04'0 0.0
2017-Oct-18 11:59N 40°38' W 074°04'0 0.3
2017-Oct-18 11:30N 40°39' W 074°04'3 6.2
2017-Oct-18 11:01N 40°41' W 074°02'1 2.2
2017-Oct-18 10:31N 40°40' W 074°03'2 4.1
2017-Oct-18 10:01N 40°39' W 074°04'4 8.6
2017-Oct-18 09:31N 40°42' W 074°01'4 8.6
2017-Oct-18 09:01N 40°39' W 074°04'4 8.6
2017-Oct-18 08:31N 40°42' W 074°01'4 8.6
2017-Oct-18 08:00N 40°39' W 074°04'4 8.6
2017-Oct-18 07:31N 40°42' W 074°01'4 8.5
2017-Oct-18 07:01N 40°39' W 074°04'4 7.8
2017-Oct-18 06:28N 40°42' W 074°01'4 9.5
2017-Oct-18 06:01N 40°39' W 074°04'4 7.6
2017-Oct-18 05:27N 40°42' W 074°01'4 9.8
2017-Oct-18 05:00N 40°39' W 074°04'4 8.5
2017-Oct-18 04:30N 40°42' W 074°01'4 8.8
2017-Oct-18 04:01N 40°39' W 074°04'0 0.4
2017-Oct-18 03:30N 40°38' W 074°04'0 0.0
2017-Oct-18 03:00N 40°38' W 074°04'0 0.0
2017-Oct-18 02:29N 40°38' W 074°04'0 0.0
2017-Oct-18 01:59N 40°38' W 074°04'0 0.0
2017-Oct-18 01:29N 40°38' W 074°04'0 0.0
2017-Oct-18 00:59N 40°38' W 074°04'0 0.0
2017-Oct-18 00:29N 40°38' W 074°04'0 0.0
2017-Oct-17 23:59N 40°38' W 074°04'0 0.0
2017-Oct-17 23:29N 40°38' W 074°04'0 0.0
2017-Oct-17 22:59N 40°38' W 074°04'0 0.0
2017-Oct-17 22:29N 40°38' W 074°04'0 0.0
2017-Oct-17 21:56N 40°38' W 074°04'0 0.0
2017-Oct-17 21:29N 40°38' W 074°04'0 0.0
2017-Oct-17 20:56N 40°38' W 074°04'0 0.0
2017-Oct-17 20:23N 40°38' W 074°04'0 0.0
2017-Oct-17 19:59N 40°38' W 074°04'0 0.0
2017-Oct-17 19:29N 40°38' W 074°04'0 0.0
2017-Oct-17 18:59N 40°38' W 074°04'0 0.0
2017-Oct-17 18:29N 40°38' W 074°04'0 0.0
2017-Oct-17 17:59N 40°38' W 074°04'0 0.0
2017-Oct-17 17:29N 40°38' W 074°04'0 0.0
2017-Oct-17 16:59N 40°38' W 074°04'0 0.0
2017-Oct-17 16:29N 40°38' W 074°04'0 0.0
2017-Oct-17 15:59N 40°38' W 074°04'0 0.0
2017-Oct-17 15:29N 40°38' W 074°04'0 0.0
2017-Oct-17 14:56N 40°38' W 074°04'0 0.0
2017-Oct-17 14:29N 40°38' W 074°04'0 0.0
2017-Oct-17 13:59N 40°38' W 074°04'0 0.0
2017-Oct-17 13:29N 40°38' W 074°04'0 0.0
2017-Oct-17 13:00N 40°38' W 074°04'0 0.0
2017-Oct-17 12:30N 40°38' W 074°04'0 0.0
2017-Oct-17 12:00N 40°38' W 074°04'0 0.3
2017-Oct-17 11:30N 40°39' W 074°04'3 6.5
2017-Oct-17 11:00N 40°41' W 074°02'2 3.5
2017-Oct-17 10:30N 40°40' W 074°03'2 3.1
2017-Oct-17 10:00N 40°39' W 074°04'4 8.6
2017-Oct-17 09:31N 40°42' W 074°01'4 8.5
2017-Oct-17 09:00N 40°39' W 074°04'4 8.6
2017-Oct-17 08:30N 40°42' W 074°01'4 8.5
2017-Oct-17 08:00N 40°39' W 074°04'4 8.1
2017-Oct-17 07:29N 40°42' W 074°01'4 9.2
2017-Oct-17 07:00N 40°39' W 074°04'4 8.6
2017-Oct-17 06:30N 40°42' W 074°01'4 8.6
2017-Oct-17 06:00N 40°39' W 074°04'4 8.5
2017-Oct-17 05:31N 40°42' W 074°01'4 8.5
2017-Oct-17 05:01N 40°39' W 074°04'4 8.5
2017-Oct-17 04:30N 40°42' W 074°01'4 8.6
2017-Oct-17 04:00N 40°39' W 074°04'0 0.8
2017-Oct-17 03:30N 40°38' W 074°04'0 0.7
2017-Oct-17 03:00N 40°38' W 074°04'0 0.0
2017-Oct-17 02:30N 40°38' W 074°04'0 0.0
2017-Oct-17 01:56N 40°38' W 074°04'0 0.0
2017-Oct-17 01:29N 40°38' W 074°04'0 0.0
2017-Oct-17 00:59N 40°38' W 074°04'0 0.0
2017-Oct-17 00:29N 40°38' W 074°04'0 0.0
2017-Oct-16 23:56N 40°38' W 074°04'0 0.0
2017-Oct-16 23:29N 40°38' W 074°04'0 0.0
2017-Oct-16 22:56N 40°38' W 074°04'0 0.0
2017-Oct-16 22:29N 40°38' W 074°04'0 0.0
2017-Oct-16 21:59N 40°38' W 074°04'0 0.0
2017-Oct-16 21:29N 40°38' W 074°04'0 0.0
2017-Oct-16 20:59N 40°38' W 074°04'0 0.0
2017-Oct-16 20:29N 40°38' W 074°04'0 0.0
2017-Oct-16 19:59N 40°38' W 074°04'0 0.0
2017-Oct-16 19:29N 40°38' W 074°04'0 0.0
2017-Oct-16 18:59N 40°38' W 074°04'0 0.0
2017-Oct-16 18:29N 40°38' W 074°04'0 0.0
2017-Oct-16 17:56N 40°38' W 074°04'0 0.0
2017-Oct-16 17:29N 40°38' W 074°04'0 0.0
2017-Oct-16 16:59N 40°38' W 074°04'0 0.0
2017-Oct-16 16:29N 40°38' W 074°04'0 0.0
2017-Oct-16 15:59N 40°38' W 074°04'0 0.0
2017-Oct-16 15:29N 40°38' W 074°04'0 0.0
2017-Oct-16 14:56N 40°38' W 074°04'0 0.0
2017-Oct-16 14:29N 40°38' W 074°04'0 0.0
2017-Oct-16 13:26N 40°38' W 074°04'0 0.6
2017-Oct-16 13:00N 40°39' W 074°04'0 0.0
2017-Oct-16 12:30N 40°39' W 074°04'0 0.0
2017-Oct-16 12:00N 40°39' W 074°04'0 0.0
2017-Oct-16 11:30N 40°39' W 074°04'0 0.1
2017-Oct-16 11:00N 40°39' W 074°04'0 0.1
2017-Oct-16 10:30N 40°39' W 074°04'4 8.6
2017-Oct-16 10:00N 40°42' W 074°01'4 8.6
2017-Oct-16 09:30N 40°39' W 074°04'4 8.6
2017-Oct-16 09:01N 40°42' W 074°01'4 8.6
2017-Oct-16 08:31N 40°39' W 074°04'4 8.6
2017-Oct-16 08:00N 40°42' W 074°01'4 8.6
2017-Oct-16 07:30N 40°39' W 074°04'4 8.5
2017-Oct-16 07:00N 40°42' W 074°01'4 8.6
2017-Oct-16 06:30N 40°39' W 074°04'4 8.6
2017-Oct-16 06:00N 40°42' W 074°01'4 8.6
2017-Oct-16 05:30N 40°39' W 074°04'4 8.5
2017-Oct-16 05:00N 40°42' W 074°01'4 8.6
2017-Oct-16 04:30N 40°39' W 074°04'0 0.4
2017-Oct-16 04:00N 40°38' W 074°04'0 0.0
2017-Oct-16 03:31N 40°38' W 074°04'0 0.0
2017-Oct-16 03:00N 40°38' W 074°04'0 0.0
2017-Oct-16 02:30N 40°38' W 074°04'0 0.0
2017-Oct-16 02:00N 40°38' W 074°04'0 0.0
2017-Oct-16 01:30N 40°38' W 074°04'0 0.0
2017-Oct-16 00:57N 40°38' W 074°04'0 0.0
2017-Oct-16 00:30N 40°38' W 074°04'0 0.0
2017-Oct-16 00:00N 40°38' W 074°04'0 0.0
2017-Oct-15 23:30N 40°38' W 074°04'0 0.0
2017-Oct-15 23:00N 40°38' W 074°04'0 0.0
2017-Oct-15 22:30N 40°38' W 074°04'0 0.0
2017-Oct-15 22:00N 40°38' W 074°04'0 0.0
2017-Oct-15 21:30N 40°38' W 074°04'0 0.0
2017-Oct-15 21:00N 40°38' W 074°04'0 0.0
2017-Oct-15 20:24N 40°38' W 074°04'0 0.0
2017-Oct-15 19:54N 40°38' W 074°04'0 0.0
2017-Oct-15 19:24N 40°38' W 074°04'0 0.0
2017-Oct-15 18:57N 40°38' W 074°04'0 0.0
2017-Oct-15 18:30N 40°38' W 074°04'0 0.0
2017-Oct-15 18:00N 40°38' W 074°04'0 0.0
2017-Oct-15 17:30N 40°38' W 074°04'0 0.0
2017-Oct-15 17:00N 40°38' W 074°04'0 0.0
2017-Oct-15 16:30N 40°38' W 074°04'0 0.0
2017-Oct-15 16:00N 40°38' W 074°04'0 0.0
2017-Oct-15 15:24N 40°38' W 074°04'0 0.0
2017-Oct-15 15:00N 40°38' W 074°04'0 0.0
2017-Oct-15 13:57N 40°38' W 074°04'0 0.0
2017-Oct-15 13:30N 40°38' W 074°04'0 0.0
2017-Oct-15 13:00N 40°38' W 074°04'0 0.0
2017-Oct-15 12:30N 40°38' W 074°04'0 0.3
2017-Oct-15 12:00N 40°39' W 074°04'0 0.0
2017-Oct-15 11:30N 40°39' W 074°04'4 8.7
2017-Oct-15 11:00N 40°42' W 074°01'4 8.6
2017-Oct-15 10:30N 40°39' W 074°04'4 8.7
2017-Oct-15 10:01N 40°42' W 074°01'4 8.5
2017-Oct-15 09:30N 40°39' W 074°04'4 8.6
2017-Oct-15 09:01N 40°42' W 074°01'4 8.6
2017-Oct-15 08:31N 40°39' W 074°04'4 8.6
2017-Oct-15 08:01N 40°42' W 074°01'4 8.6
2017-Oct-15 07:31N 40°39' W 074°04'4 8.5
2017-Oct-15 07:00N 40°42' W 074°01'4 8.5
2017-Oct-15 06:31N 40°39' W 074°04'4 8.5
2017-Oct-15 06:01N 40°42' W 074°01'4 8.6
2017-Oct-15 05:30N 40°39' W 074°04'4 8.6
2017-Oct-15 05:00N 40°42' W 074°01'4 8.6
2017-Oct-15 04:30N 40°39' W 074°04'0 0.4
2017-Oct-15 04:00N 40°38' W 074°04'0 0.0
2017-Oct-15 03:30N 40°38' W 074°04'0 0.0
2017-Oct-15 03:00N 40°38' W 074°04'0 0.0
2017-Oct-15 02:30N 40°38' W 074°04'0 0.0
2017-Oct-15 02:00N 40°38' W 074°04'0 0.0
2017-Oct-15 01:25N 40°38' W 074°04'0 0.0
2017-Oct-15 00:58N 40°38' W 074°04'0 0.0
2017-Oct-15 00:28N 40°38' W 074°04'0 0.0
2017-Oct-14 23:58N 40°38' W 074°04'0 0.0
2017-Oct-14 23:28N 40°38' W 074°04'0 0.0
2017-Oct-14 22:58N 40°38' W 074°04'0 0.0
2017-Oct-14 22:28N 40°38' W 074°04'0 0.0
2017-Oct-14 21:58N 40°38' W 074°04'0 0.0
2017-Oct-14 21:28N 40°38' W 074°04'0 0.0
2017-Oct-14 20:58N 40°38' W 074°04'0 0.0
2017-Oct-14 20:28N 40°38' W 074°04'0 0.0
2017-Oct-14 19:58N 40°38' W 074°04'0 0.0
2017-Oct-14 19:28N 40°38' W 074°04'0 0.0
2017-Oct-14 18:58N 40°38' W 074°04'0 0.0
2017-Oct-14 18:28N 40°38' W 074°04'0 0.0
2017-Oct-14 17:58N 40°38' W 074°04'0 0.0
2017-Oct-14 17:28N 40°38' W 074°04'0 0.0
2017-Oct-14 16:55N 40°38' W 074°04'0 0.0
2017-Oct-14 16:28N 40°38' W 074°04'0 0.0
2017-Oct-14 15:58N 40°38' W 074°04'0 0.0
2017-Oct-14 15:28N 40°38' W 074°04'0 0.0
2017-Oct-14 14:55N 40°38' W 074°04'0 0.0
2017-Oct-14 14:25N 40°38' W 074°04'0 0.0
2017-Oct-14 13:58N 40°38' W 074°04'0 0.0
2017-Oct-14 13:28N 40°38' W 074°04'0 0.0
2017-Oct-14 12:55N 40°38' W 074°04'0 0.0
2017-Oct-14 12:29N 40°38' W 074°04'0 0.4
2017-Oct-14 12:00N 40°39' W 074°04'0 0.0
2017-Oct-14 11:30N 40°39' W 074°04'4 8.7
2017-Oct-14 11:00N 40°42' W 074°01'4 8.6
2017-Oct-14 10:30N 40°39' W 074°04'4 8.5
2017-Oct-14 10:00N 40°42' W 074°01'4 8.7
2017-Oct-14 09:30N 40°39' W 074°04'4 8.4
2017-Oct-14 09:00N 40°42' W 074°01'4 8.7
2017-Oct-14 08:30N 40°39' W 074°04'4 8.7
2017-Oct-14 08:01N 40°42' W 074°01'4 8.4
2017-Oct-14 07:31N 40°39' W 074°04'4 8.4
2017-Oct-14 07:00N 40°42' W 074°01'4 8.4
2017-Oct-14 06:30N 40°39' W 074°04'4 8.6
2017-Oct-14 06:00N 40°42' W 074°01'4 8.6
2017-Oct-14 05:30N 40°39' W 074°04'4 8.6
2017-Oct-14 05:00N 40°42' W 074°01'4 8.7
2017-Oct-14 04:30N 40°39' W 074°04'4 8.5
2017-Oct-14 04:00N 40°42' W 074°01'4 8.5
2017-Oct-14 03:30N 40°39' W 074°04'0 0.3
2017-Oct-14 03:00N 40°38' W 074°04'0 0.0
2017-Oct-14 02:30N 40°38' W 074°04'0 0.0
2017-Oct-14 02:00N 40°38' W 074°04'0 0.0
2017-Oct-14 01:29N 40°38' W 074°04'0 0.0
2017-Oct-14 01:00N 40°38' W 074°04'0 0.0
2017-Oct-14 00:30N 40°38' W 074°04'0 0.0
2017-Oct-14 00:00N 40°38' W 074°04'0 0.0
2017-Oct-13 23:30N 40°38' W 074°04'0 0.0
2017-Oct-13 23:00N 40°38' W 074°04'0 0.0
2017-Oct-13 22:30N 40°38' W 074°04'0 0.0
2017-Oct-13 22:00N 40°38' W 074°04'0 0.0
2017-Oct-13 21:30N 40°38' W 074°04'0 0.0
2017-Oct-13 21:00N 40°38' W 074°04'0 0.0
2017-Oct-13 20:30N 40°38' W 074°04'0 0.0
2017-Oct-13 20:00N 40°38' W 074°04'0 0.0
2017-Oct-13 19:30N 40°38' W 074°04'0 0.0
2017-Oct-13 19:00N 40°38' W 074°04'0 0.0
2017-Oct-13 18:30N 40°38' W 074°04'0 0.0
2017-Oct-13 18:00N 40°38' W 074°04'0 0.0
2017-Oct-13 17:30N 40°38' W 074°04'0 0.0
2017-Oct-13 17:00N 40°38' W 074°04'0 0.0
2017-Oct-13 16:30N 40°38' W 074°04'0 0.0
2017-Oct-13 16:00N 40°38' W 074°04'0 0.0
2017-Oct-13 15:30N 40°38' W 074°04'0 0.0
2017-Oct-13 15:00N 40°38' W 074°04'0 0.0
2017-Oct-13 14:30N 40°38' W 074°04'0 0.0
2017-Oct-13 14:00N 40°38' W 074°04'0 0.0
2017-Oct-13 13:30N 40°38' W 074°04'0 0.0
2017-Oct-13 13:00N 40°38' W 074°04'0 0.0
2017-Oct-13 12:30N 40°38' W 074°04'0 0.0
2017-Oct-13 12:00N 40°38' W 074°04'0 0.0
2017-Oct-13 11:30N 40°38' W 074°04'0 0.5
2017-Oct-13 11:00N 40°39' W 074°04'0 0.0
2017-Oct-13 10:30N 40°39' W 074°04'4 8.8
2017-Oct-13 10:00N 40°42' W 074°01'4 8.5
2017-Oct-13 09:30N 40°39' W 074°04'4 8.6
2017-Oct-13 09:00N 40°42' W 074°01'4 8.6
2017-Oct-13 08:30N 40°39' W 074°04'4 8.5
2017-Oct-13 08:00N 40°42' W 074°01'4 8.5
2017-Oct-13 07:30N 40°39' W 074°04'4 8.7
2017-Oct-13 07:00N 40°42' W 074°01'4 8.7
2017-Oct-13 06:31N 40°39' W 074°04'4 8.5
2017-Oct-13 06:00N 40°42' W 074°01'4 8.7
2017-Oct-13 05:30N 40°39' W 074°04'4 8.3
2017-Oct-13 05:00N 40°42' W 074°01'4 8.8
2017-Oct-13 04:30N 40°39' W 074°04'4 8.6
2017-Oct-13 04:00N 40°42' W 074°01'4 8.7
2017-Oct-13 03:30N 40°39' W 074°04'0 0.3
2017-Oct-13 03:00N 40°38' W 074°04'0 0.0
2017-Oct-13 02:30N 40°38' W 074°04'0 0.0
2017-Oct-13 02:00N 40°38' W 074°04'0 0.0
2017-Oct-13 01:31N 40°38' W 074°04'0 0.0
2017-Oct-13 01:00N 40°38' W 074°04'0 0.0
2017-Oct-13 00:30N 40°38' W 074°04'0 0.0
2017-Oct-13 00:00N 40°38' W 074°04'0 0.0
2017-Oct-12 23:30N 40°38' W 074°04'0 0.0
2017-Oct-12 23:00N 40°38' W 074°04'0 0.0
2017-Oct-12 22:30N 40°38' W 074°04'0 0.0
2017-Oct-12 22:00N 40°38' W 074°04'0 0.0
2017-Oct-12 21:30N 40°38' W 074°04'0 0.0
2017-Oct-12 21:00N 40°38' W 074°04'0 0.0
2017-Oct-12 20:30N 40°38' W 074°04'0 0.0
2017-Oct-12 20:00N 40°38' W 074°04'0 0.0
2017-Oct-12 19:30N 40°38' W 074°04'0 0.0
2017-Oct-12 19:00N 40°38' W 074°04'0 0.0
2017-Oct-12 18:30N 40°38' W 074°04'0 0.0
2017-Oct-12 18:00N 40°38' W 074°04'0 0.0
2017-Oct-12 17:30N 40°38' W 074°04'0 0.0
2017-Oct-12 17:00N 40°38' W 074°04'0 0.0
2017-Oct-12 16:30N 40°38' W 074°04'0 0.0
2017-Oct-12 16:00N 40°38' W 074°04'0 0.0
2017-Oct-12 15:30N 40°38' W 074°04'0 0.0
2017-Oct-12 15:00N 40°38' W 074°04'0 0.0
2017-Oct-12 14:30N 40°38' W 074°04'0 0.0
2017-Oct-12 14:00N 40°38' W 074°04'0 0.0
2017-Oct-12 13:30N 40°38' W 074°04'0 0.0
2017-Oct-12 13:00N 40°38' W 074°04'0 0.0
2017-Oct-12 12:30N 40°38' W 074°04'0 0.0
2017-Oct-12 12:00N 40°38' W 074°04'0 0.0
2017-Oct-12 11:31N 40°38' W 074°04'0 0.4
2017-Oct-12 10:59N 40°39' W 074°04'0 0.0
2017-Oct-12 10:30N 40°39' W 074°04'4 8.6
2017-Oct-12 10:00N 40°42' W 074°01'4 8.5
2017-Oct-12 09:30N 40°39' W 074°04'4 8.7
2017-Oct-12 09:00N 40°42' W 074°01'4 8.4
2017-Oct-12 08:30N 40°39' W 074°04'4 8.7
2017-Oct-12 08:00N 40°42' W 074°01'4 8.5
2017-Oct-12 07:30N 40°39' W 074°04'4 8.7
2017-Oct-12 07:00N 40°42' W 074°01'4 8.4
2017-Oct-12 06:30N 40°39' W 074°04'4 8.6
2017-Oct-12 06:00N 40°42' W 074°01'4 8.5
2017-Oct-12 05:30N 40°39' W 074°04'4 8.8
2017-Oct-12 05:00N 40°42' W 074°01'4 8.5
2017-Oct-12 04:30N 40°39' W 074°04'4 8.6
2017-Oct-12 04:00N 40°42' W 074°01'4 8.8
2017-Oct-12 03:30N 40°39' W 074°04'0 0.4
2017-Oct-12 03:00N 40°38' W 074°04'0 0.0
2017-Oct-12 02:30N 40°38' W 074°04'0 0.0
2017-Oct-12 01:59N 40°38' W 074°04'0 0.0
2017-Oct-12 01:29N 40°38' W 074°04'0 0.0
2017-Oct-12 00:59N 40°38' W 074°04'0 0.0
2017-Oct-12 00:29N 40°38' W 074°04'0 0.0
2017-Oct-11 23:56N 40°38' W 074°04'0 0.0
2017-Oct-11 23:29N 40°38' W 074°04'0 0.0
2017-Oct-11 22:56N 40°38' W 074°04'0 0.0
2017-Oct-11 22:29N 40°38' W 074°04'0 0.0
2017-Oct-11 21:59N 40°38' W 074°04'0 0.0
2017-Oct-11 21:29N 40°38' W 074°04'0 0.0
2017-Oct-11 20:53N 40°38' W 074°04'0 0.0
2017-Oct-11 20:23N 40°38' W 074°04'0 0.0
2017-Oct-11 19:56N 40°38' W 074°04'0 0.0
2017-Oct-11 19:26N 40°38' W 074°04'0 0.0
2017-Oct-11 18:53N 40°38' W 074°04'0 0.0
2017-Oct-11 18:20N 40°38' W 074°04'0 0.0
2017-Oct-11 17:59N 40°38' W 074°04'0 0.0
2017-Oct-11 17:29N 40°38' W 074°04'0 0.0
2017-Oct-11 16:56N 40°38' W 074°04'0 0.0
2017-Oct-10 23:59N 40°38' W 074°04'0 0.0
2017-Oct-10 23:29N 40°38' W 074°04'0 0.0
2017-Oct-10 22:59N 40°38' W 074°04'0 0.0
2017-Oct-10 22:29N 40°38' W 074°04'0 0.0
2017-Oct-10 21:59N 40°38' W 074°04'0 0.0
2017-Oct-10 21:29N 40°38' W 074°04'0 0.0
2017-Oct-10 20:59N 40°38' W 074°04'0 0.0
2017-Oct-10 20:29N 40°38' W 074°04'0 0.0
2017-Oct-10 19:59N 40°38' W 074°04'0 0.0
2017-Oct-10 19:29N 40°38' W 074°04'0 0.0
2017-Oct-10 18:59N 40°38' W 074°04'0 0.0
2017-Oct-10 18:29N 40°38' W 074°04'0 0.0
2017-Oct-10 17:59N 40°38' W 074°04'0 0.0
2017-Oct-10 17:29N 40°38' W 074°04'0 0.0
2017-Oct-10 16:56N 40°38' W 074°04'0 0.0
2017-Oct-10 16:29N 40°38' W 074°04'0 0.0
2017-Oct-10 15:59N 40°38' W 074°04'0 0.0
2017-Oct-10 15:26N 40°38' W 074°04'0 0.0
2017-Oct-10 14:59N 40°38' W 074°04'0 0.0
2017-Oct-10 13:59N 40°38' W 074°04'0 0.0
2017-Oct-10 13:26N 40°38' W 074°04'0 0.1
2017-Oct-10 13:00N 40°38' W 074°04'0 0.5
2017-Oct-10 12:30N 40°39' W 074°04'0 0.0
2017-Oct-10 12:00N 40°39' W 074°04'0 0.0
2017-Oct-10 11:30N 40°39' W 074°04'0 0.1
2017-Oct-10 11:01N 40°39' W 074°04'0 0.0
2017-Oct-10 10:31N 40°39' W 074°04'4 8.6
2017-Oct-10 10:00N 40°42' W 074°01'4 8.6
2017-Oct-10 09:30N 40°39' W 074°04'4 8.6
2017-Oct-10 09:00N 40°42' W 074°01'4 8.6
2017-Oct-10 08:30N 40°39' W 074°04'4 8.6
2017-Oct-10 08:00N 40°42' W 074°01'4 8.6
2017-Oct-10 07:30N 40°39' W 074°04'4 8.5
2017-Oct-10 07:00N 40°42' W 074°01'4 8.6
2017-Oct-10 06:30N 40°39' W 074°04'4 8.6
2017-Oct-10 06:00N 40°42' W 074°01'4 8.6
2017-Oct-10 05:30N 40°39' W 074°04'4 8.5
2017-Oct-10 05:00N 40°42' W 074°01'4 8.5
2017-Oct-10 04:31N 40°39' W 074°04'4 8.6
2017-Oct-10 04:00N 40°42' W 074°01'4 8.7
2017-Oct-10 03:31N 40°39' W 074°04'0 0.4
2017-Oct-10 03:01N 40°38' W 074°04'0 0.0
2017-Oct-10 02:31N 40°38' W 074°04'0 0.0
2017-Oct-10 02:01N 40°38' W 074°04'0 0.0
2017-Oct-10 01:28N 40°38' W 074°04'  

Dump ship's entire track history